createdAt,value
2023-04-25T00:00:08.461Z,100369.28
2023-04-25T00:03:17.335Z,100360.75
2023-04-25T00:06:22.806Z,100355.09
2023-04-25T00:09:30.167Z,100346.75
2023-04-25T00:12:35.365Z,100346.78
2023-04-25T00:15:42.799Z,100344.31
2023-04-25T00:18:52.388Z,100343.31
2023-04-25T00:21:57.439Z,100331.63
2023-04-25T00:25:04.678Z,100334.22
2023-04-25T00:28:11.476Z,100335.84
2023-04-25T00:31:16.812Z,100320.69
2023-04-25T00:34:22.090Z,100313.91
2023-04-25T00:37:27.236Z,100312.28
2023-04-25T00:40:33.852Z,100325.75
2023-04-25T00:43:39.873Z,100328.19
2023-04-25T00:46:45.712Z,100331.63
2023-04-25T00:49:50.839Z,100328.19
2023-04-25T00:52:56.469Z,100323.16
2023-04-25T00:56:03.108Z,100321.56
2023-04-25T00:59:09.023Z,100319.88
2023-04-25T01:02:14.253Z,100319.81
2023-04-25T01:05:19.941Z,100318.81
2023-04-25T01:08:27.504Z,100325.75
2023-04-25T01:11:34.144Z,100308.91
2023-04-25T01:14:39.175Z,100272.69
2023-04-25T01:17:45.230Z,100268.50
2023-04-25T01:20:51.165Z,100254.91
2023-04-25T01:23:58.298Z,100261.72
2023-04-25T01:27:04.094Z,100283.59
2023-04-25T01:30:10.562Z,100267.72
2023-04-25T01:33:17.455Z,100253.38
2023-04-25T01:36:23.373Z,100244.88
2023-04-25T01:39:29.811Z,100261.84
2023-04-25T01:42:35.354Z,100260.03
2023-04-25T01:45:42.323Z,100253.41
2023-04-25T01:48:48.997Z,100292.00
2023-04-25T01:51:54.140Z,100302.84
2023-04-25T01:55:03.059Z,100258.00
2023-04-25T01:58:14.222Z,100260.59
2023-04-25T02:01:39.183Z,100251.44
2023-04-25T02:04:58.747Z,100243.94
2023-04-25T02:08:06.898Z,100242.34
2023-04-25T02:11:14.855Z,100250.72
2023-04-25T02:14:26.035Z,100236.34
2023-04-25T02:17:41.725Z,100232.13
2023-04-25T02:20:47.379Z,100227.28
2023-04-25T02:23:53.349Z,100216.13
2023-04-25T02:27:00.456Z,100218.03
2023-04-25T02:30:07.928Z,100215.41
2023-04-25T02:33:12.974Z,100199.25
2023-04-25T02:36:18.308Z,100202.91
2023-04-25T02:39:23.381Z,100188.44
2023-04-25T02:42:29.821Z,100194.41
2023-04-25T02:45:36.086Z,100191.84
2023-04-25T02:48:41.314Z,100180.97
2023-04-25T02:51:46.336Z,100191.09
2023-04-25T02:54:51.753Z,100167.56
2023-04-25T02:57:58.242Z,100176.69
2023-04-25T03:01:15.400Z,100155.75
2023-04-25T03:04:21.996Z,100145.81
2023-04-25T03:07:27.318Z,100142.41
2023-04-25T03:10:32.345Z,100140.53
2023-04-25T03:13:43.434Z,100139.75
2023-04-25T03:16:49.772Z,100136.41
2023-04-25T03:19:56.252Z,100127.19
2023-04-25T03:23:01.487Z,100130.25
2023-04-25T03:26:08.203Z,100153.09
2023-04-25T03:29:14.687Z,100138.97
2023-04-25T03:32:21.860Z,100142.34
2023-04-25T03:35:27.218Z,100143.91
2023-04-25T03:38:33.477Z,100136.28
2023-04-25T03:41:38.576Z,100116.19
2023-04-25T03:44:51.468Z,100127.97
2023-04-25T03:47:56.637Z,100111.75
2023-04-25T03:51:01.972Z,100110.13
2023-04-25T03:54:08.751Z,100096.78
2023-04-25T03:57:31.677Z,100093.56
2023-04-25T04:00:39.329Z,100080.00
2023-04-25T04:03:44.929Z,100075.06
2023-04-25T04:06:50.712Z,100079.34
2023-04-25T04:10:02.298Z,100079.38
2023-04-25T04:13:15.512Z,100080.97
2023-04-25T04:16:22.241Z,100066.53
2023-04-25T04:19:28.720Z,100074.97
2023-04-25T04:23:03.731Z,100077.34
2023-04-25T04:26:09.778Z,100068.03
2023-04-25T04:29:50.305Z,100069.84
2023-04-25T04:33:04.896Z,100077.44
2023-04-25T04:36:11.335Z,100087.31
2023-04-25T04:39:16.896Z,100097.59
2023-04-25T04:42:34.088Z,100104.97
2023-04-25T04:46:06.100Z,100104.91
2023-04-25T04:49:13.376Z,100108.25
2023-04-25T04:52:43.986Z,100095.56
2023-04-25T04:56:15.376Z,100088.97
2023-04-25T04:59:33.849Z,100093.97
2023-04-25T05:02:42.005Z,100102.25
2023-04-25T05:06:09.937Z,100085.38
2023-04-25T05:09:50.474Z,100076.88
2023-04-25T05:13:21.829Z,100071.00
2023-04-25T05:16:46.084Z,100067.47
2023-04-25T05:20:29.511Z,100066.75
2023-04-25T05:23:56.796Z,100069.19
2023-04-25T05:27:20.689Z,100065.72
2023-04-25T05:30:44.622Z,100063.31
2023-04-25T05:33:54.995Z,100065.56
2023-04-25T05:37:01.445Z,100063.28
2023-04-25T05:40:10.694Z,100058.03
2023-04-25T05:43:24.726Z,100054.59
2023-04-25T05:46:39.478Z,100052.69
2023-04-25T05:50:13.069Z,100049.47
2023-04-25T05:53:38.581Z,100045.19
2023-04-25T05:56:46.123Z,100038.38
2023-04-25T05:59:51.220Z,100042.56
2023-04-25T06:02:57.164Z,100046.63
2023-04-25T06:06:02.609Z,100048.34
2023-04-25T06:09:08.708Z,100053.09
2023-04-25T06:12:15.169Z,100055.06
2023-04-25T06:18:28.596Z,100059.72
2023-04-25T06:21:33.999Z,100070.13
2023-04-25T06:24:39.165Z,100059.09
2023-04-25T06:27:45.679Z,100065.63
2023-04-25T06:30:51.611Z,100061.53
2023-04-25T06:33:58.183Z,100060.72
2023-04-25T06:37:05.477Z,100059.94
2023-04-25T06:40:12.401Z,100053.13
2023-04-25T06:43:19.010Z,100052.09
2023-04-25T06:46:42.905Z,100044.41
2023-04-25T06:49:48.018Z,100050.38
2023-04-25T06:52:53.572Z,100031.66
2023-04-25T06:56:00.242Z,100037.47
2023-04-25T06:59:15.363Z,100065.34
2023-04-25T07:02:23.499Z,100061.91
2023-04-25T07:05:31.665Z,100054.81
2023-04-25T07:08:37.087Z,100063.22
2023-04-25T07:11:42.162Z,100072.47
2023-04-25T07:14:48.787Z,100070.81
2023-04-25T07:17:54.269Z,100065.78
2023-04-25T07:20:59.544Z,100070.16
2023-04-25T07:24:05.069Z,100067.41
2023-04-25T07:27:13.938Z,100067.44
2023-04-25T07:30:32.314Z,100068.09
2023-04-25T07:33:37.720Z,100067.19
2023-04-25T07:36:43.015Z,100081.31
2023-04-25T07:39:48.205Z,100078.03
2023-04-25T07:42:53.323Z,100089.03
2023-04-25T07:46:07.991Z,100093.03
2023-04-25T07:49:14.673Z,100078.13
2023-04-25T07:52:22.511Z,100072.00
2023-04-25T07:55:32.903Z,100085.53
2023-04-25T07:58:46.817Z,100087.34
2023-04-25T08:01:55.406Z,100088.78
2023-04-25T08:05:01.236Z,100086.38
2023-04-25T08:08:07.697Z,100087.75
2023-04-25T08:11:13.135Z,100087.56
2023-04-25T08:14:18.880Z,100097.72
2023-04-25T08:17:25.827Z,100095.66
2023-04-25T08:20:31.549Z,100089.88
2023-04-25T08:23:39.352Z,100089.66
2023-04-25T08:26:55.051Z,100094.41
2023-04-25T08:30:04.078Z,100086.97
2023-04-25T08:33:12.418Z,100087.59
2023-04-25T08:36:41.059Z,100101.03
2023-04-25T08:40:08.172Z,100108.19
2023-04-25T08:43:23.991Z,100113.22
2023-04-25T08:46:29.056Z,100110.94
2023-04-25T08:50:07.739Z,100114.19
2023-04-25T08:53:19.852Z,100114.06
2023-04-25T08:56:26.100Z,100117.03
2023-04-25T08:59:32.005Z,100112.63
2023-04-25T09:02:37.976Z,100105.69
2023-04-25T09:05:47.748Z,100115.75
2023-04-25T09:08:54.855Z,100125.19
2023-04-25T09:12:00.661Z,100123.31
2023-04-25T09:15:12.398Z,100117.75
2023-04-25T09:18:37.068Z,100124.63
2023-04-25T09:21:43.568Z,100133.16
2023-04-25T09:24:49.978Z,100131.00
2023-04-25T09:27:57.109Z,100135.84
2023-04-25T09:31:07.144Z,100126.59
2023-04-25T09:34:19.138Z,100132.06
2023-04-25T09:37:33.481Z,100129.16
2023-04-25T09:40:46.346Z,100132.06
2023-04-25T09:44:02.764Z,100137.81
2023-04-25T09:47:16.173Z,100139.41
2023-04-25T09:50:25.662Z,100141.78
2023-04-25T09:53:42.182Z,100150.19
2023-04-25T09:56:56.890Z,100150.31
2023-04-25T10:00:06.254Z,100150.81
2023-04-25T10:03:20.976Z,100152.16
2023-04-25T10:06:51.614Z,100153.38
2023-04-25T10:10:02.942Z,100153.41
2023-04-25T10:13:09.256Z,100162.09
2023-04-25T10:16:14.606Z,100161.72
2023-04-25T10:19:19.985Z,100159.31
2023-04-25T10:22:32.663Z,100163.75
2023-04-25T10:29:45.602Z,100169.13
2023-04-25T10:32:51.962Z,100167.13
2023-04-25T10:36:01.141Z,100162.88
2023-04-25T10:39:09.817Z,100170.22
2023-04-25T10:42:16.494Z,100167.97
2023-04-25T10:45:22.027Z,100176.31
2023-04-25T10:48:30.474Z,100174.44
2023-04-25T10:55:02.595Z,100178.09
2023-04-25T10:58:09.208Z,100175.34
2023-04-25T11:01:15.852Z,100179.34
2023-04-25T11:04:25.046Z,100176.19
2023-04-25T11:07:37.588Z,100174.31
2023-04-25T11:10:43.335Z,100176.16
2023-04-25T11:13:52.469Z,100179.91
2023-04-25T11:16:59.648Z,100179.81
2023-04-25T11:20:10.426Z,100188.97
2023-04-25T11:23:15.665Z,100179.91
2023-04-25T11:26:22.517Z,100179.22
2023-04-25T11:29:29.925Z,100189.84
2023-04-25T11:32:37.494Z,100196.31
2023-04-25T11:35:43.737Z,100187.75
2023-04-25T11:38:49.110Z,100188.00
2023-04-25T11:41:54.400Z,100184.88
2023-04-25T11:45:01.354Z,100188.16
2023-04-25T11:48:07.035Z,100185.91
2023-04-25T11:51:12.931Z,100180.34
2023-04-25T11:54:18.525Z,100185.38
2023-04-25T11:57:23.727Z,100184.00
2023-04-25T12:00:30.481Z,100192.94
2023-04-25T12:03:36.693Z,100187.63
2023-04-25T12:06:42.984Z,100182.06
2023-04-25T12:09:55.050Z,100183.50
2023-04-25T12:13:00.252Z,100188.06
2023-04-25T12:16:07.371Z,100182.75
2023-04-25T12:19:16.966Z,100185.94
2023-04-25T12:22:23.594Z,100176.13
2023-04-25T12:25:39.371Z,100186.28
2023-04-25T12:28:49.632Z,100184.91
2023-04-25T12:31:57.258Z,100192.31
2023-04-25T12:35:02.432Z,100194.22
2023-04-25T12:38:07.550Z,100198.38
2023-04-25T12:41:15.592Z,100194.22
2023-04-25T12:44:20.684Z,100189.28
2023-04-25T12:47:27.270Z,100188.19
2023-04-25T12:50:32.720Z,100196.16
2023-04-25T12:53:38.689Z,100189.50
2023-04-25T12:56:44.487Z,100190.00
2023-04-25T12:59:49.544Z,100186.47
2023-04-25T13:02:56.485Z,100185.38
2023-04-25T13:06:02.090Z,100190.13
2023-04-25T13:09:07.785Z,100183.94
2023-04-25T13:12:14.836Z,100186.22
2023-04-25T13:15:20.061Z,100184.81
2023-04-25T13:18:27.504Z,100184.53
2023-04-25T13:21:34.190Z,100180.31
2023-04-25T13:24:39.247Z,100172.09
2023-04-25T13:27:45.340Z,100175.81
2023-04-25T13:30:50.701Z,100177.91
2023-04-25T13:33:57.224Z,100184.34
2023-04-25T13:37:02.348Z,100176.56
2023-04-25T13:40:10.585Z,100176.53
2023-04-25T13:43:15.670Z,100177.25
2023-04-25T13:46:40.887Z,100178.78
2023-04-25T13:49:47.184Z,100196.22
2023-04-25T13:52:52.536Z,100188.50
2023-04-25T13:55:57.558Z,100171.47
2023-04-25T13:59:02.609Z,100167.63
2023-04-25T14:02:07.702Z,100162.53
2023-04-25T14:05:15.437Z,100164.97
2023-04-25T14:08:21.398Z,100162.38
2023-04-25T14:11:26.542Z,100162.91
2023-04-25T14:14:31.826Z,100159.38
2023-04-25T14:17:37.085Z,100161.88
2023-04-25T14:20:43.592Z,100156.31
2023-04-25T14:23:49.200Z,100149.22
2023-04-25T14:26:54.633Z,100144.13
2023-04-25T14:29:59.786Z,100153.00
2023-04-25T14:33:05.298Z,100148.00
2023-04-25T14:36:12.925Z,100144.81
2023-04-25T14:39:18.293Z,100148.22
2023-04-25T14:42:23.900Z,100151.09
2023-04-25T14:45:29.287Z,100157.22
2023-04-25T14:48:34.517Z,100161.44
2023-04-25T14:51:41.181Z,100163.31
2023-04-25T14:54:46.366Z,100159.63
2023-04-25T14:57:51.364Z,100157.09
2023-04-25T15:00:57.740Z,100155.81
2023-04-25T15:04:03.116Z,100173.06
2023-04-25T15:07:12.211Z,100169.47
2023-04-25T15:10:17.803Z,100173.81
2023-04-25T15:13:22.890Z,100170.75
2023-04-25T15:16:28.066Z,100178.59
2023-04-25T15:19:33.293Z,100182.47
2023-04-25T15:22:39.787Z,100192.25
2023-04-25T15:25:44.810Z,100199.03
2023-04-25T15:28:50.316Z,100200.28
2023-04-25T15:31:55.528Z,100196.56
2023-04-25T15:35:00.583Z,100204.16
2023-04-25T15:38:07.279Z,100207.94
2023-04-25T15:41:15.220Z,100204.69
2023-04-25T15:44:20.392Z,100210.03
2023-04-25T15:47:25.687Z,100217.38
2023-04-25T15:50:30.876Z,100209.72
2023-04-25T15:53:37.477Z,100215.50
2023-04-25T15:56:42.610Z,100214.16
2023-04-25T15:59:48.653Z,100211.97
2023-04-25T16:02:53.973Z,100211.50
2023-04-25T16:05:59.652Z,100218.47
2023-04-25T16:09:06.758Z,100221.13
2023-04-25T16:12:13.792Z,100219.34
2023-04-25T16:15:19.896Z,100193.41
2023-04-25T16:18:25.147Z,100198.84
2023-04-25T16:21:30.642Z,100215.78
2023-04-25T16:24:37.271Z,100209.94
2023-04-25T16:27:42.321Z,100212.81
2023-04-25T16:30:47.432Z,100202.81
2023-04-25T16:33:52.875Z,100218.84
2023-04-25T16:36:58.654Z,100203.56
2023-04-25T16:40:09.018Z,100206.06
2023-04-25T16:43:14.171Z,100207.16
2023-04-25T16:46:20.426Z,100199.91
2023-04-25T16:49:26.610Z,100203.19
2023-04-25T16:52:31.736Z,100207.78
2023-04-25T16:55:38.308Z,100204.25
2023-04-25T16:58:43.460Z,100196.56
2023-04-25T17:01:48.563Z,100198.88
2023-04-25T17:04:53.826Z,100202.69
2023-04-25T17:07:59.069Z,100204.09
2023-04-25T17:11:06.089Z,100209.66
2023-04-25T17:14:13.003Z,100208.91
2023-04-25T17:17:18.928Z,100209.31
2023-04-25T17:20:24.265Z,100205.53
2023-04-25T17:23:31.580Z,100195.81
2023-04-25T17:26:38.245Z,100206.72
2023-04-25T17:29:43.316Z,100207.28
2023-04-25T17:32:48.449Z,100201.41
2023-04-25T17:35:54.332Z,100202.28
2023-04-25T17:38:59.407Z,100217.06
2023-04-25T17:42:07.210Z,100215.16
2023-04-25T17:45:13.833Z,100207.25
2023-04-25T17:48:19.034Z,100218.38
2023-04-25T17:51:24.199Z,100215.25
2023-04-25T17:54:29.665Z,100211.50
2023-04-25T17:57:36.480Z,100205.66
2023-04-25T18:00:41.814Z,100206.19
2023-04-25T18:03:49.354Z,100215.63
2023-04-25T18:06:55.607Z,100219.72
2023-04-25T18:10:00.766Z,100218.28
2023-04-25T18:13:09.158Z,100219.97
2023-04-25T18:16:14.617Z,100210.47
2023-04-25T18:19:22.667Z,100226.38
2023-04-25T18:22:27.897Z,100224.53
2023-04-25T18:25:33.783Z,100225.97
2023-04-25T18:28:40.404Z,100224.88
2023-04-25T18:31:46.706Z,100219.78
2023-04-25T18:34:53.415Z,100220.69
2023-04-25T18:37:59.168Z,100229.25
2023-04-25T18:41:15.499Z,100246.63
2023-04-25T18:44:32.286Z,100246.25
2023-04-25T18:47:37.401Z,100240.53
2023-04-25T18:50:43.996Z,100241.50
2023-04-25T18:53:49.136Z,100247.44
2023-04-25T18:56:55.742Z,100245.59
2023-04-25T19:00:06.733Z,100245.63
2023-04-25T19:03:14.604Z,100244.56
2023-04-25T19:06:19.732Z,100248.53
2023-04-25T19:09:25.323Z,100250.88
2023-04-25T19:12:31.364Z,100255.19
2023-04-25T19:15:38.005Z,100251.34
2023-04-25T19:18:43.093Z,100253.50
2023-04-25T19:21:50.380Z,100254.44
2023-04-25T19:25:03.095Z,100254.44
2023-04-25T19:28:17.919Z,100259.66
2023-04-25T19:31:24.514Z,100253.00
2023-04-25T19:34:29.698Z,100261.59
2023-04-25T19:37:34.946Z,100262.41
2023-04-25T19:40:40.225Z,100254.81
2023-04-25T19:43:45.393Z,100261.13
2023-04-25T19:46:51.622Z,100260.25
2023-04-25T19:49:56.749Z,100263.59
2023-04-25T19:53:02.173Z,100259.56
2023-04-25T19:56:08.117Z,100261.13
2023-04-25T19:59:13.421Z,100270.38
2023-04-25T20:02:21.504Z,100254.97
2023-04-25T20:05:28.069Z,100256.75
2023-04-25T20:08:33.247Z,100254.13
2023-04-25T20:11:38.430Z,100245.56
2023-04-25T20:14:44.050Z,100244.66
2023-04-25T20:17:50.561Z,100248.38
2023-04-25T20:20:56.626Z,100245.75
2023-04-25T20:24:02.391Z,100254.00
2023-04-25T20:27:07.615Z,100248.59
2023-04-25T20:30:13.945Z,100250.28
2023-04-25T20:33:22.038Z,100254.16
2023-04-25T20:36:27.546Z,100243.28
2023-04-25T20:39:33.413Z,100240.03
2023-04-25T20:42:38.994Z,100240.66
2023-04-25T20:45:44.594Z,100238.06
2023-04-25T20:48:52.704Z,100244.78
2023-04-25T20:51:58.123Z,100248.97
2023-04-25T20:55:03.445Z,100239.06
2023-04-25T20:58:08.590Z,100241.44
2023-04-25T21:01:13.824Z,100243.97
2023-04-25T21:04:20.919Z,100246.72
2023-04-25T21:07:26.754Z,100240.81
2023-04-25T21:10:32.234Z,100234.88
2023-04-25T21:13:37.391Z,100231.38
2023-04-25T21:16:43.826Z,100229.84
2023-04-25T21:19:50.363Z,100228.41
2023-04-25T21:22:55.837Z,100228.03
2023-04-25T21:26:00.994Z,100229.84
2023-04-25T21:29:06.154Z,100223.13
2023-04-25T21:32:16.666Z,100222.25
2023-04-25T21:35:23.725Z,100223.22
2023-04-25T21:38:28.809Z,100215.41
2023-04-25T21:41:34.011Z,100219.94
2023-04-25T21:44:40.139Z,100223.50
2023-04-25T21:47:46.734Z,100223.81
2023-04-25T21:50:53.247Z,100215.97
2023-04-25T21:54:00.610Z,100216.59
2023-04-25T21:57:05.826Z,100205.81
2023-04-25T22:00:25.128Z,100209.66
2023-04-25T22:03:30.552Z,100210.28
2023-04-25T22:06:37.713Z,100212.78
2023-04-25T22:09:53.901Z,100220.63
2023-04-25T22:13:00.405Z,100222.34
2023-04-25T22:16:06.315Z,100207.69
2023-04-25T22:19:11.705Z,100217.19
2023-04-25T22:22:18.352Z,100208.78
2023-04-25T22:25:24.002Z,100212.31
2023-04-25T22:28:29.297Z,100210.00
2023-04-25T22:31:35.133Z,100205.72
2023-04-25T22:34:43.232Z,100210.75
2023-04-25T22:37:49.742Z,100206.66
2023-04-25T22:40:54.782Z,100209.13
2023-04-25T22:43:59.924Z,100208.25
2023-04-25T22:47:05.082Z,100206.66
2023-04-25T22:50:14.789Z,100200.59
2023-04-25T22:53:21.346Z,100196.22
2023-04-25T22:56:27.095Z,100203.28
2023-04-25T22:59:32.294Z,100191.44
2023-04-25T23:02:38.222Z,100198.97
2023-04-25T23:05:43.479Z,100199.31
2023-04-25T23:08:50.720Z,100195.91
2023-04-25T23:11:57.400Z,100205.97
2023-04-25T23:15:03.091Z,100197.38
2023-04-25T23:18:09.015Z,100211.88
2023-04-25T23:21:14.814Z,100201.19
2023-04-25T23:24:21.419Z,100210.00
2023-04-25T23:27:26.895Z,100207.38
2023-04-25T23:30:31.997Z,100202.06
2023-04-25T23:33:37.317Z,100202.78
2023-04-25T23:36:42.779Z,100202.22
2023-04-25T23:39:52.587Z,100193.28
2023-04-25T23:42:58.041Z,100196.69
2023-04-25T23:46:03.250Z,100191.47
2023-04-25T23:49:13.673Z,100189.00
2023-04-25T23:52:18.786Z,100192.38
2023-04-25T23:55:26.132Z,100192.44
2023-04-25T23:58:30.916Z,100194.84
